M I D A S
Marine Information and Data Acquisition System
Tripno 1830 of the Zeeleeuw from 2009-12-09 07:18:40 to 2009-12-09 15:15:33
Back to CruiseResearch ActivitiesStationsMapUnderway DataData graphs

EquipmentUnitsComment
TimeDGPSUTC
LatitudeDGPSDM.mWGS84
LongitudeDGPSDM.mWGS84
TemperatureSBE03/SBE38deg celciusITS90
ConductivitySBE21S/mITS90
SalinitySBE21 Practical Salinity Units
ChlorophylAChelsea fluorimeterg/lCalibrated in Aceton
Missing or incorrect values are displayed as -999
Sea surface data collected by the RV Zeeleeuw from 2009-12-09 07:27:41 to 2009-12-09 17:35:34
Time Latitude Longitude Temperature Conductivity Salinity ChlorophylA
2009-12-09 07:28:50 51°13.677 2°55.898 16.7669 0.053117 0.316826 -0.373735
2009-12-09 07:29:50 51°13.7 2°55.81 16.8412 0.053014 0.316206 -0.373735
2009-12-09 07:30:50 51°13.734 2°55.729 16.8153 0.053117 0.316839 -0.373735
2009-12-09 07:31:50 51°13.781 2°55.669 16.8058 0.053014 0.316219 -0.373735
2009-12-09 07:32:50 51°13.845 2°55.631 16.8423 0.053014 0.316225 -0.373735
2009-12-09 07:33:50 51°13.91 2°55.635 16.8664 0.053117 0.316864 -0.373735
2009-12-09 07:34:49 51°13.936 2°55.649 16.866 0.053117 0.316864 -0.373735
2009-12-09 07:35:47 51°13.953 2°55.59 16.8309 0.053014 0.316257 -0.373735
2009-12-09 07:36:46 51°14.021 2°55.488 16.7135 0.053014 0.31625 -0.373735
2009-12-09 07:37:46 51°14.13 2°55.397 16.8268 0.053014 0.316263 -0.373735
2009-12-09 07:38:46 51°14.25 2°55.265 16.8199 0.053014 0.316275 -0.373735
2009-12-09 07:39:45 51°14.362 2°55.052 16.6035 0.053117 0.316902 -0.373735
2009-12-09 07:40:46 51°14.52 2°54.886 16.6602 0.053117 0.316921 -0.373735
2009-12-09 07:41:46 51°14.69 2°54.752 16.5383 0.053014 0.316301 -0.373735
2009-12-09 07:42:46 51°14.854 2°54.6 16.5872 0.053014 0.316307 -0.373735
2009-12-09 07:43:45 51°15.016 2°54.45 16.5404 0.053117 0.31694 -0.373735
2009-12-09 07:44:46 51°15.182 2°54.289 16.5044 0.053014 0.316319 -0.373735
2009-12-09 07:45:46 51°15.346 2°54.132 16.4827 0.053117 0.316965 -0.373735
2009-12-09 07:46:45 51°15.512 2°53.984 16.4354 0.053117 0.316971 -0.373735
2009-12-09 07:47:46 51°15.683 2°53.832 16.5004 0.053014 0.316357 -0.373735
2009-12-09 07:48:46 51°15.854 2°53.684 16.4492 0.053117 0.317003 -0.373735
2009-12-09 07:49:46 51°16.023 2°53.537 16.4741 0.053014 0.316389 -0.373735
2009-12-09 07:50:46 51°16.191 2°53.387 16.489 0.053014 0.316408 -0.408559
2009-12-09 07:51:46 51°16.361 2°53.243 16.4887 0.053014 0.316426 -0.408559
2009-12-09 07:52:46 51°16.532 2°53.099 16.425 0.053014 0.316452 -0.408559
2009-12-09 07:53:46 51°16.703 2°52.958 16.4928 0.053014 0.316477 -0.408559
2009-12-09 07:54:46 51°16.873 2°52.812 16.4619 0.053014 0.316502 -0.408559
2009-12-09 07:55:46 51°17.044 2°52.665 16.5034 0.053014 0.316521 -0.408559
2009-12-09 07:56:46 51°17.214 2°52.516 16.5015 0.053014 0.316552 -0.408559
2009-12-09 07:57:46 51°17.385 2°52.366 16.5139 0.053014 0.316578 -0.408559
2009-12-09 07:58:46 51°17.556 2°52.215 16.489 0.053014 0.316603 -0.408559
2009-12-09 07:59:46 51°17.727 2°52.063 16.4905 0.053014 0.316628 -0.443383
2009-12-09 08:00:46 51°17.897 2°51.912 16.5035 0.053014 0.316666 -0.443383
2009-12-09 08:01:46 51°18.068 2°51.762 16.519 0.053014 0.316685 -0.443383
2009-12-09 08:02:46 51°18.238 2°51.614 16.5231 0.053014 0.31671 -0.443383
2009-12-09 08:03:46 51°18.41 2°51.464 16.5447 0.053014 0.316735 -0.443383
2009-12-09 08:04:46 51°18.579 2°51.314 16.5058 0.053014 0.316761 -0.443383
2009-12-09 08:05:46 51°18.75 2°51.161 16.5238 0.053014 0.31678 -0.478207
2009-12-09 08:06:46 51°18.921 2°51.009 16.5606 0.053014 0.316811 -0.478207
2009-12-09 08:07:46 51°19.091 2°50.856 16.5454 0.053014 0.316849 -0.478207
2009-12-09 08:08:46 51°19.261 2°50.704 16.5657 0.053014 0.316881 -0.443383
2009-12-09 08:09:46 51°19.431 2°50.551 16.5816 0.053014 0.316906 -0.478207
2009-12-09 08:10:46 51°19.599 2°50.396 16.5955 0.052911 0.316303 -0.478207
2009-12-09 08:11:46 51°19.767 2°50.239 16.6035 0.052911 0.316335 -0.478207
2009-12-09 08:12:46 51°19.937 2°50.085 16.6235 0.052911 0.316366 -0.478207
2009-12-09 08:13:46 51°20.108 2°49.937 16.634 0.052911 0.316398 -0.478207
2009-12-09 08:14:46 51°20.28 2°49.789 16.6441 0.052911 0.316429 -0.478207
2009-12-09 08:15:46 51°20.445 2°49.626 16.6316 0.052911 0.316461 -0.478207
2009-12-09 08:16:46 51°20.602 2°49.448 16.6633 0.052911 0.316493 -0.478207
2009-12-09 08:17:46 51°20.758 2°49.269 16.6761 0.052911 0.316531 -0.478207
2009-12-09 08:18:46 51°20.913 2°49.09 16.6891 0.052911 0.316562 -0.478207
2009-12-09 08:19:46 51°21.066 2°48.907 16.6983 0.052911 0.316594 -0.443383
2009-12-09 08:20:46 51°21.222 2°48.73 16.7106 0.052911 0.316632 -0.443383
2009-12-09 08:21:46 51°21.377 2°48.55 16.7119 0.052911 0.316657 -0.478207
2009-12-09 08:22:46 51°21.531 2°48.369 16.7347 0.052911 0.316689 -0.443383
2009-12-09 08:23:46 51°21.685 2°48.189 16.748 0.052911 0.31672 -0.478207
2009-12-09 08:24:46 51°21.84 2°48.01 16.7525 0.052911 0.316758 -0.443383
2009-12-09 08:25:46 51°21.995 2°47.83 16.7622 0.052808 0.316155 -0.443383
2009-12-09 08:26:46 51°22.15 2°47.651 16.7661 0.052808 0.316199 -0.443383
2009-12-09 08:27:46 51°22.306 2°47.474 16.7903 0.052808 0.316237 -0.443383
2009-12-09 08:28:46 51°22.463 2°47.294 16.792 0.052808 0.316262 -0.443383
2009-12-09 08:29:46 51°22.62 2°47.114 16.8127 0.052808 0.316313 -0.443383
2009-12-09 08:30:46 51°22.776 2°46.931 16.8327 0.052808 0.316338 -0.443383
2009-12-09 08:31:46 51°22.923 2°46.732 16.8192 0.052808 0.316382 -0.443383
2009-12-09 08:32:46 51°23.069 2°46.532 16.8517 0.052808 0.316427 -0.443383
2009-12-09 08:33:46 51°23.212 2°46.33 16.8658 0.052808 0.316458 -0.443383
2009-12-09 08:34:46 51°23.356 2°46.129 16.877 0.052808 0.316503 -0.443383
2009-12-09 08:35:46 51°23.502 2°45.929 16.8918 0.052808 0.316534 -0.443383
2009-12-09 08:36:46 51°23.649 2°45.728 16.8979 0.052808 0.316579 -0.443383
2009-12-09 08:37:46 51°23.794 2°45.528 16.9119 0.052705 0.315981 -0.443383
2009-12-09 08:38:46 51°23.935 2°45.335 16.9268 0.052705 0.316031 -0.443383
2009-12-09 08:39:46 51°24.028 2°45.302 16.94 0.052705 0.316075 -0.443383
2009-12-09 08:40:46 51°24.076 2°45.369 16.9515 0.052705 0.31612 -0.443383
2009-12-09 08:41:46 51°24.092 2°45.461 16.9857 0.052705 0.316151 -0.443383
2009-12-09 08:42:46 51°24.086 2°45.571 16.9863 0.052705 0.316183 -0.443383
2009-12-09 08:43:46 51°24.092 2°45.672 17.0038 0.052705 0.316234 -0.443383
2009-12-09 08:44:46 51°24.101 2°45.768 17.0172 0.052705 0.316253 -0.443383
2009-12-09 08:45:46 51°24.11 2°45.863 17.036 0.052705 0.316278 -0.443383
2009-12-09 08:46:46 51°24.12 2°45.956 17.04 0.052705 0.316297 -0.478207
2009-12-09 08:47:46 51°24.137 2°46.054 17.0476 0.052705 0.316323 -0.478207
2009-12-09 08:48:46 51°24.166 2°46.15 17.0745 0.052705 0.316335 -0.478207
2009-12-09 08:49:46 51°24.211 2°46.236 17.0807 0.052705 0.316354 -0.478207
2009-12-09 08:50:46 51°24.264 2°46.314 17.1049 0.052705 0.316367 -0.478207
2009-12-09 08:51:46 51°24.32 2°46.388 17.1341 0.052705 0.316386 -0.513031
2009-12-09 08:52:46 51°24.377 2°46.458 17.1411 0.052705 0.316405 -0.513031
2009-12-09 08:53:46 51°24.428 2°46.526 17.146 0.052705 0.316424 -0.513031
2009-12-09 08:54:46 51°24.48 2°46.592 17.1738 0.052705 0.316449 -0.513031
2009-12-09 08:55:46 51°24.533 2°46.654 17.1746 0.052705 0.316468 -0.513031
2009-12-09 08:56:46 51°24.585 2°46.716 17.1806 0.052705 0.316487 -0.513031
2009-12-09 08:57:46 51°24.638 2°46.777 17.2194 0.052705 0.316507 -0.513031
2009-12-09 08:58:46 51°24.69 2°46.837 17.2353 0.052705 0.316526 -0.513031
2009-12-09 08:59:46 51°24.739 2°46.902 17.2162 0.052602 0.315907 -0.513031
2009-12-09 09:00:46 51°24.785 2°46.97 17.26 0.052602 0.315933 -0.513031
2009-12-09 09:01:46 51°24.831 2°47.039 17.2615 0.052602 0.315952 -0.478207
2009-12-09 09:02:46 51°24.877 2°47.108 17.2791 0.052602 0.315971 -0.513031
2009-12-09 09:03:46 51°24.919 2°47.181 17.2752 0.052602 0.315984 -0.478207
2009-12-09 09:04:46 51°24.96 2°47.255 13.713 3.124509 23.308168 -0.338911
2009-12-09 09:05:46 51°24.999 2°47.332 14.1565 3.336561 25.057464 -0.304087
2009-12-09 09:06:46 51°25.038 2°47.407 14.2896 3.405437 25.636898 -0.304087
2009-12-09 09:07:46 51°25.077 2°47.483 14.37 3.436305 25.90092 -0.304087
2009-12-09 09:08:46 51°25.115 2°47.558 14.466 3.452775 26.042024 -0.304087
2009-12-09 09:09:46 51°25.155 2°47.632 14.5405 3.461581 26.116607 -0.304087
2009-12-09 09:10:46 51°25.195 2°47.706 14.6161 3.466761 26.169791 -0.304087
2009-12-09 09:11:46 51°25.226 2°47.785 14.6895 3.470387 26.211075 -0.304087
2009-12-09 09:12:46 51°25.253 2°47.872 14.7438 3.472873 26.238674 -0.304087
2009-12-09 09:13:46 51°25.28 2°47.965 14.8089 3.473805 26.24857 -0.304087
2009-12-09 09:14:46 51°25.308 2°48.059 14.8702 3.474013 26.252923 -0.304087
2009-12-09 09:15:46 51°25.336 2°48.153 14.9305 3.474323 26.261289 -0.304087
2009-12-09 09:16:46 51°25.364 2°48.248 14.9789 3.474738 26.272099 -0.304087
2009-12-09 09:17:46 51°25.395 2°48.343 15.0375 3.474531 26.277186 -0.304087
2009-12-09 09:18:46 51°25.415 2°48.438 15.0928 3.474635 26.283303 -0.304087
2009-12-09 09:19:46 51°25.427 2°48.531 15.1411 3.474635 26.28803 -0.304087
2009-12-09 09:20:46 51°25.43 2°48.62 15.1921 3.474324 26.289629 -0.304087
2009-12-09 09:21:46 51°25.424 2°48.701 15.2415 3.474324 26.292257 -0.304087
2009-12-09 09:22:46 51°25.41 2°48.777 15.2943 3.473806 26.290543 -0.304087
2009-12-09 09:23:46 51°25.395 2°48.85 15.3427 3.473702 26.291778 -0.269263
2009-12-09 09:24:46 51°25.379 2°48.901 15.3942 3.473288 26.289881 -0.304087
2009-12-09 09:25:46 51°25.379 2°48.933 15.4441 3.473288 26.29251 -0.304087
2009-12-09 09:26:46 51°25.388 2°48.956 15.4926 3.472667 26.290454 -0.304087
2009-12-09 09:27:46 51°25.402 2°48.975 15.5494 3.473081 26.296557 -0.269263
2009-12-09 09:28:46 51°25.393 2°49.011 15.5644 3.47246 26.294501 -0.269263
2009-12-09 09:29:46 51°25.341 2°48.959 15.6449 3.472149 26.292421 -0.304087
2009-12-09 09:30:46 51°25.231 2°48.835 15.6664 3.471735 26.303155 -0.304087
2009-12-09 09:31:46 51°25.093 2°48.725 15.7293 3.471424 26.302127 -0.269263
2009-12-09 09:32:46 51°24.968 2°48.602 15.7603 3.471528 26.30563 -0.269263
2009-12-09 09:33:46 51°24.929 2°48.493 15.817 3.47101 26.303916 -0.269263
2009-12-09 09:34:46 51°24.938 2°48.433 15.8582 3.470595 26.306234 -0.304087
2009-12-09 09:35:46 51°24.958 2°48.414 16.091 3.470181 26.312242 -0.269263
2009-12-09 09:36:46 51°24.977 2°48.402 16.1247 3.470078 26.320339 -0.304087
2009-12-09 09:37:46 51°24.994 2°48.396 16.1646 3.469663 26.32108 -0.304087
2009-12-09 09:38:46 51°25.011 2°48.392 16.2231 3.469249 26.322877 -0.304087
2009-12-09 09:39:46 51°25.03 2°48.39 16.2931 3.468628 26.324518 -0.304087
2009-12-09 09:40:46 51°25.05 2°48.392 16.3547 3.46811 26.324389 -0.304087
2009-12-09 09:41:46 51°25.068 2°48.393 16.4079 3.467592 26.327432 -0.304087
2009-12-09 09:42:46 51°25.086 2°48.396 16.4621 3.467385 26.335205 -0.304087
2009-12-09 09:43:46 51°25.104 2°48.399 16.5197 3.466971 26.338067 -0.304087
2009-12-09 09:44:46 51°25.122 2°48.401 16.5686 3.466142 26.337972 -0.304087
2009-12-09 09:45:46 51°25.141 2°48.402 16.626 3.465521 26.34174 -0.304087
2009-12-09 09:46:46 51°25.16 2°48.404 16.6794 3.465314 26.347411 -0.304087
2009-12-09 09:47:46 51°25.206 2°48.354 16.7215 3.464485 26.342552 -0.304087
2009-12-09 09:48:46 51°25.325 2°48.261 16.7624 3.463864 26.357992 -0.269263
2009-12-09 09:49:46 51°25.494 2°48.128 16.7893 3.463242 26.35806 -0.269263
2009-12-09 09:50:46 51°25.668 2°47.987 16.8407 3.462724 26.362718 -0.304087
2009-12-09 09:51:46 51°25.85 2°47.868 16.9175 3.462103 26.367038 -0.304087
2009-12-09 09:52:46 51°26.037 2°47.769 16.9577 3.461689 26.370983 -0.304087
2009-12-09 09:53:46 51°26.223 2°47.669 16.9811 3.46086 26.375157 -0.269263
2009-12-09 09:54:46 51°26.409 2°47.568 17.0497 3.460342 26.380362 -0.304087
2009-12-09 09:55:46 51°26.596 2°47.472 17.0406 3.459721 26.378308 -0.304087
2009-12-09 09:56:46 51°26.785 2°47.392 17.1294 3.458996 26.375912 -0.269263
2009-12-09 09:57:46 51°26.975 2°47.313 17.1445 3.458478 26.374732 -0.304087
2009-12-09 09:58:46 51°27.163 2°47.232 17.2104 3.457856 26.375339 -0.269263
2009-12-09 09:59:46 51°27.35 2°47.148 17.2811 3.457131 26.371877 -0.304087
2009-12-09 10:00:46 51°27.538 2°47.066 17.3179 3.45651 26.368224 -0.304087
2009-12-09 10:01:46 51°27.727 2°46.986 17.369 3.455888 26.365103 -0.304087
2009-12-09 10:02:46 51°27.915 2°46.903 17.4239 3.455474 26.366395 -0.304087
2009-12-09 10:03:46 51°28.103 2°46.821 17.4141 3.45506 26.366622 -0.304087
2009-12-09 10:04:46 51°28.291 2°46.739 17.5191 3.454645 26.365252 -0.304087
2009-12-09 10:05:46 51°28.479 2°46.656 17.494 3.454024 26.36213 -0.304087
2009-12-09 10:06:46 51°28.667 2°46.575 17.5408 3.453817 26.361977 -0.269263
2009-12-09 10:07:46 51°28.855 2°46.492 17.6351 3.453299 26.360796 -0.269263
2009-12-09 10:08:46 51°29.043 2°46.407 17.6172 3.452574 26.356264 -0.304087
2009-12-09 10:09:46 51°29.23 2°46.323 17.672 3.452263 26.354703 -0.304087
2009-12-09 10:10:46 51°29.418 2°46.239 17.6936 3.451849 26.354397 -0.304087
2009-12-09 10:11:46 51°29.605 2°46.154 17.7175 3.451434 26.353558 -0.304087
2009-12-09 10:12:46 51°29.793 2°46.072 17.8089 3.451124 26.355193 -0.304087
2009-12-09 10:13:46 51°29.98 2°45.986 17.8576 3.450709 26.354888 -0.304087
2009-12-09 10:14:46 51°30.168 2°45.903 17.8685 3.450399 26.354925 -0.269263
2009-12-09 10:15:46 51°30.355 2°45.818 17.8857 3.450088 26.357095 -0.269263
2009-12-09 10:16:46 51°30.543 2°45.731 17.9146 3.44957 26.35538 -0.269263
2009-12-09 10:17:46 51°30.731 2°45.648 17.9967 3.449052 26.354198 -0.304087
2009-12-09 10:18:46 51°30.918 2°45.565 18.0544 3.448949 26.355455 -0.269263
2009-12-09 10:19:46 51°31.106 2°45.482 18.0584 3.448431 26.354273 -0.269263
2009-12-09 10:20:46 51°31.293 2°45.398 18.0418 3.448224 26.355188 -0.269263
2009-12-09 10:21:46 51°31.482 2°45.312 18.1356 3.447706 26.354539 -0.304087
2009-12-09 10:22:46 51°31.669 2°45.224 18.1588 3.447084 26.353014 -0.304087
2009-12-09 10:23:46 51°31.856 2°45.141 18.208 3.446981 26.356408 -0.269263
2009-12-09 10:24:46 51°32.043 2°45.055 18.2005 3.44667 26.357514 -0.304087
2009-12-09 10:25:46 51°32.229 2°44.967 18.2177 3.446463 26.360032 -0.269263
2009-12-09 10:26:46 51°32.415 2°44.879 18.2755 3.445841 26.357439 -0.269263
2009-12-09 10:27:46 51°32.603 2°44.795 18.3331 3.445531 26.358012 -0.269263
2009-12-09 10:28:46 51°32.79 2°44.709 18.2981 3.44522 26.360723 -0.269263
2009-12-09 10:29:46 51°32.975 2°44.62 18.3918 3.444702 26.360076 -0.304087
2009-12-09 10:30:46 51°33.165 2°44.544 18.3581 3.444702 26.363818 -0.269263
2009-12-09 10:31:46 51°33.353 2°44.471 18.4001 3.444288 26.364585 -0.269263
2009-12-09 10:32:46 51°33.545 2°44.402 18.5004 3.443666 26.361991 -0.269263
2009-12-09 10:33:46 51°33.735 2°44.329 18.5464 3.443149 26.361879 -0.269263
2009-12-09 10:34:46 51°33.926 2°44.262 18.5286 3.443045 26.364746 -0.269263
2009-12-09 10:35:46 51°34.116 2°44.192 18.5752 3.442424 26.362686 -0.269263
2009-12-09 10:36:46 51°34.307 2°44.124 18.6006 3.442216 26.364675 -0.269263
2009-12-09 10:37:46 51°34.496 2°44.057 18.6395 3.442009 26.365595 -0.269263
2009-12-09 10:38:46 51°34.687 2°43.989 18.6923 3.441388 26.364606 -0.269263
2009-12-09 10:39:46 51°34.878 2°43.924 18.6786 3.440766 26.362546 -0.269263
2009-12-09 10:40:46 51°35.07 2°43.857 18.7094 3.440663 26.364344 -0.269263
2009-12-09 10:41:46 51°35.261 2°43.788 18.7248 3.440352 26.364921 -0.269263
2009-12-09 10:42:46 51°35.45 2°43.721 18.7783 3.440145 26.366377 -0.269263
2009-12-09 10:43:46 51°35.64 2°43.652 18.7846 3.43942 26.362366 -0.269263
2009-12-09 10:44:46 51°35.829 2°43.583 18.825 3.439006 26.362064 -0.269263
2009-12-09 10:45:46 51°36.018 2°43.52 18.884 3.438488 26.35874 -0.269263
2009-12-09 10:46:46 51°36.205 2°43.449 18.8888 3.438177 26.359852 -0.269263
2009-12-09 10:47:46 51°36.395 2°43.385 18.929 3.437763 26.358478 -0.269263
2009-12-09 10:48:46 51°36.584 2°43.32 18.9186 3.437556 26.358863 -0.269263
2009-12-09 10:49:46 51°36.774 2°43.253 18.9725 3.437038 26.357681 -0.269263
2009-12-09 10:50:46 51°36.965 2°43.201 18.98 3.436831 26.358602 -0.269263
2009-12-09 10:51:45 51°37.155 2°43.202 19.0142 3.43652 26.358644 -0.269263
2009-12-09 10:52:46 51°37.352 2°43.213 19.0423 3.436313 26.361174 -0.269263
2009-12-09 10:53:45 51°37.542 2°43.219 19.0926 3.435173 26.354713 -0.269263
2009-12-09 10:54:46 51°37.737 2°43.229 19.096 3.435173 26.35954 -0.269263
2009-12-09 10:55:46 51°37.928 2°43.234 19.1179 3.434241 26.352155 -0.269263
2009-12-09 10:56:46 51°38.119 2°43.241 19.1383 3.434138 26.35503 -0.269263
2009-12-09 10:57:46 51°38.312 2°43.25 19.1688 3.433827 26.35239 -0.269263
2009-12-09 10:58:45 51°38.502 2°43.258 19.1995 3.433413 26.349405 -0.269263
2009-12-09 10:59:46 51°38.695 2°43.264 19.2061 3.432998 26.347494 -0.269263
2009-12-09 11:00:45 51°38.885 2°43.269 19.2442 3.432688 26.346998 -0.269263
2009-12-09 11:01:46 51°39.08 2°43.27 19.2745 3.432066 26.342253 -0.269263
2009-12-09 11:02:45 51°39.268 2°43.257 19.2946 3.431652 26.339805 -0.269263
2009-12-09 11:03:46 51°39.46 2°43.234 18.6727 3.431652 26.342486 -0.164791
2009-12-09 11:04:46 51°39.649 2°43.214 18.8145 3.431237 26.340574 -0.199615
2009-12-09 11:05:46 51°39.839 2°43.195 18.8639 3.43103 26.339886 -0.199615
2009-12-09 11:06:46 51°40.03 2°43.172 18.798 3.430512 26.33602 -0.199615
2009-12-09 11:07:45 51°40.217 2°43.154 18.9016 3.430512 26.337629 -0.199615
2009-12-09 11:08:46 51°40.409 2°43.125 18.9078 3.430098 26.335717 -0.199615
2009-12-09 11:09:45 51°40.593 2°43.079 18.9095 3.429787 26.334684 -0.199615
2009-12-09 11:10:46 51°40.784 2°43.033 18.9577 3.429684 26.335413 -0.199615
2009-12-09 11:11:45 51°40.969 2°42.994 19.0067 3.429787 26.338976 -0.199615
2009-12-09 11:12:46 51°41.157 2°42.948 19.0074 3.429166 26.339059 -0.199615
2009-12-09 11:13:46 51°41.343 2°42.905 19.048 3.428959 26.338907 -0.199615
2009-12-09 11:14:46 51°41.529 2°42.857 19.0939 3.428648 26.337875 -0.199615
2009-12-09 11:15:46 51°41.714 2°42.812 19.1033 3.428545 26.340752 -0.164791
2009-12-09 11:16:45 51°41.898 2°42.767 19.0992 3.428337 26.341675 -0.164791
2009-12-09 11:17:46 51°42.086 2°42.719 19.1013 3.428234 26.342405 -0.199615
2009-12-09 11:18:45 51°42.27 2°42.676 19.1436 3.427923 26.340835 -0.199615
2009-12-09 11:19:46 51°42.459 2°42.632 19.133 3.427302 26.337696 -0.199615
2009-12-09 11:20:45 51°42.643 2°42.595 19.1599 3.427302 26.339307 -0.199615
2009-12-09 11:21:46 51°42.832 2°42.557 19.1808 3.427095 26.339693 -0.199615
2009-12-09 11:22:46 51°43.019 2°42.519 19.1616 3.426473 26.336553 -0.164791
2009-12-09 11:23:46 51°43.204 2°42.482 19.2298 3.426784 26.341347 -0.199615
2009-12-09 11:24:46 51°43.389 2°42.437 19.2136 3.426162 26.339819 -0.199615
2009-12-09 11:25:45 51°43.57 2°42.396 19.1844 3.425955 26.340743 -0.199615
2009-12-09 11:26:46 51°43.757 2°42.353 19.2207 3.425748 26.34113 -0.199615
2009-12-09 11:27:45 51°43.938 2°42.315 19.2782 3.425955 26.345581 -0.199615
2009-12-09 11:28:46 51°44.125 2°42.275 19.2678 3.425127 26.341752 -0.199615
2009-12-09 11:29:45 51°44.306 2°42.24 19.2669 3.424609 26.339493 -0.199615
2009-12-09 11:30:46 51°44.493 2°42.198 19.2743 3.424195 26.336503 -0.199615
2009-12-09 11:31:46 51°44.676 2°42.156 19.2758 3.42378 26.335125 -0.199615
2009-12-09 11:32:46 51°44.86 2°42.116 19.3117 3.423884 26.336545 -0.199615
2009-12-09 11:33:46 51°44.981 2°42.073 19.3014 3.423677 26.335318 -0.199615
2009-12-09 11:34:45 51°45.018 2°42.015 19.3161 3.42378 26.337276 -0.199615
2009-12-09 11:35:46 51°45.03 2°42.001 19.3329 3.42347 26.335167 -0.199615
2009-12-09 11:36:45 51°45.038 2°42.001 19.3417 3.423262 26.334478 -0.199615
2009-12-09 11:37:46 51°45.045 2°42.006 19.3799 3.423159 26.336285 -0.199615
2009-12-09 11:38:45 51°45.051 2°42.01 19.4233 3.422745 26.334908 -0.199615
2009-12-09 11:39:46 51°45.057 2°42.013 19.45 3.422537 26.335295 -0.199615
2009-12-09 11:40:45 51°45.064 2°42.014 19.4831 3.422745 26.340826 -0.199615
2009-12-09 11:41:46 51°45.072 2°42.013 19.5004 3.422434 26.339254 -0.199615
2009-12-09 11:42:46 51°45.08 2°42.012 19.5289 3.42233 26.342678 -0.199615
2009-12-09 11:43:46 51°45.092 2°42.002 19.5546 3.422123 26.345758 -0.199615
2009-12-09 11:44:46 51°45.145 2°41.993 19.5766 3.421916 26.347762 -0.199615
2009-12-09 11:45:46 51°45.169 2°42.039 19.5992 3.421398 26.347656 -0.164791
2009-12-09 11:46:46 51°45.17 2°42.117 19.6237 3.421088 26.349856 -0.199615
2009-12-09 11:47:45 51°45.163 2°42.211 19.6484 3.420881 26.351323 -0.199615
2009-12-09 11:48:46 51°45.124 2°42.318 19.6719 3.420363 26.35014 -0.199615
2009-12-09 11:49:45 51°45.081 2°42.384 19.6935 3.420466 26.355337 -0.164791
2009-12-09 11:50:45 51°45.033 2°42.438 19.7185 3.419741 26.354545 -0.199615
2009-12-09 11:51:45 51°44.982 2°42.493 19.7399 3.419534 26.357093 -0.199615
2009-12-09 11:52:45 51°44.932 2°42.557 19.7629 3.419224 26.358758 -0.199615
2009-12-09 11:53:46 51°44.887 2°42.627 19.781 3.41912 26.362192 -0.164791
2009-12-09 11:54:45 51°44.845 2°42.695 19.8063 3.418706 26.364594 -0.199615
2009-12-09 11:55:46 51°44.798 2°42.756 19.827 3.418499 26.367147 -0.199615
2009-12-09 11:56:45 51°44.749 2°42.804 19.8525 3.41767 26.362231 -0.199615
2009-12-09 11:57:46 51°44.691 2°42.828 19.8716 3.417256 26.361934 -0.199615
2009-12-09 11:58:45 51°44.631 2°42.832 19.8924 3.416945 26.366305 -0.164791
2009-12-09 11:59:46 51°44.568 2°42.829 19.9138 3.416531 26.366008 -0.164791
2009-12-09 12:00:46 51°44.506 2°42.816 19.9394 3.41622 26.364975 -0.199615
2009-12-09 12:01:46 51°44.443 2°42.803 19.9547 3.415702 26.363794 -0.164791
2009-12-09 12:02:46 51°44.382 2°42.804 19.9813 3.415392 26.363842 -0.199615
2009-12-09 12:03:45 51°44.322 2°42.8 19.9971 3.414874 26.363201 -0.199615
2009-12-09 12:04:46 51°44.261 2°42.782 20.0162 3.414563 26.365412 -0.199615
2009-12-09 12:05:45 51°44.204 2°42.75 20.0366 3.414045 26.367477 -0.199615
2009-12-09 12:06:46 51°44.152 2°42.695 20.0596 3.413424 26.365952 -0.199615
2009-12-09 12:07:45 51°44.112 2°42.622 20.0783 3.412906 26.365853 -0.199615
2009-12-09 12:08:46 51°44.071 2°42.541 20.0962 3.412595 26.366443 -0.164791
2009-12-09 12:09:45 51°44.031 2°42.462 20.1156 3.412181 26.366148 -0.199615
2009-12-09 12:10:46 51°43.989 2°42.38 20.133 3.411663 26.367133 -0.199615
2009-12-09 12:11:46 51°43.946 2°42.297 20.1471 3.411042 26.366148 -0.164791
2009-12-09 12:12:46 51°43.904 2°42.213 20.1669 3.410628 26.365312 -0.199615
2009-12-09 12:13:46 51°43.86 2°42.131 20.1851 3.41011 26.365214 -0.164791
2009-12-09 12:14:46 51°43.817 2°42.047 20.2023 3.409488 26.365855 -0.164791
2009-12-09 12:15:46 51°43.773 2°41.967 20.221 3.408867 26.365413 -0.164791
2009-12-09 12:16:45 51°43.729 2°41.887 20.2347 3.408246 26.366598 -0.199615
2009-12-09 12:17:45 51°43.682 2°41.813 20.2561 3.407831 26.366304 -0.164791
2009-12-09 12:18:45 51°43.623 2°41.773 20.2727 3.407417 26.36818 -0.164791
2009-12-09 12:19:46 51°43.557 2°41.762 20.2847 3.407107 26.369316 -0.164791
2009-12-09 12:20:46 51°43.493 2°41.785 20.2859 3.406692 26.369565 -0.164791
2009-12-09 12:21:46 51°43.436 2°41.828 20.3122 3.406278 26.370357 -0.164791
2009-12-09 12:22:46 51°43.387 2°41.889 20.3303 3.405657 26.367745 -0.199615
2009-12-09 12:23:46 51°43.347 2°41.963 20.3482 3.405139 26.366564 -0.199615
2009-12-09 12:24:46 51°43.324 2°42.051 20.3655 3.405035 26.368934 -0.199615
2009-12-09 12:25:46 51°43.303 2°42.138 20.3852 3.404414 26.365235 -0.164791
2009-12-09 12:26:46 51°43.282 2°42.225 20.3946 3.404 26.366028 -0.164791
2009-12-09 12:27:46 51°43.262 2°42.312 20.4131 3.403482 26.36376 -0.164791
2009-12-09 12:28:45 51°43.227 2°42.385 20.4374 3.403171 26.364355 -0.164791
2009-12-09 12:29:46 51°43.183 2°42.451 20.452 3.402653 26.363173 -0.164791
2009-12-09 12:30:46 51°43.139 2°42.512 20.4654 3.402342 26.365398 -0.164791
2009-12-09 12:31:46 51°43.092 2°42.57 20.4783 3.401825 26.36476 -0.164791
2009-12-09 12:32:46 51°43.042 2°42.623 20.4958 3.401514 26.366987 -0.164791
2009-12-09 12:33:46 51°42.991 2°42.667 20.5191 3.400893 26.364917 -0.164791
2009-12-09 12:34:46 51°42.953 2°42.69 20.5301 3.400271 26.361758 -0.164791
2009-12-09 12:35:46 51°42.91 2°42.71 20.55 3.399753 26.36112 -0.164791
2009-12-09 12:36:46 51°42.82 2°42.76 20.562 3.39965 26.364582 -0.164791
2009-12-09 12:37:45 51°42.766 2°42.787 20.5744 3.399339 26.365179 -0.199615
2009-12-09 12:38:46 51°42.736 2°42.798 20.5877 3.398925 26.365975 -0.164791
2009-12-09 12:39:45 51°42.712 2°42.809 20.6019 3.398407 26.364249 -0.164791
2009-12-09 12:40:46 51°42.647 2°42.761 20.6248 3.397682 26.362921 -0.164791
2009-12-09 12:41:46 51°42.535 2°42.592 20.6357 3.397268 26.365351 -0.199615
2009-12-09 12:42:46 51°42.393 2°42.377 20.6412 3.39675 26.36417 -0.164791
2009-12-09 12:43:46 51°42.245 2°42.156 20.6601 3.396439 26.364223 -0.199615
2009-12-09 12:44:46 51°42.096 2°41.936 20.6766 3.396129 26.364276 -0.164791
2009-12-09 12:45:46 51°41.947 2°41.715 20.6941 3.395611 26.363639 -0.164791
2009-12-09 12:46:46 51°41.798 2°41.492 20.702 3.395197 26.364438 -0.164791
2009-12-09 12:47:46 51°41.648 2°41.271 20.7164 3.394575 26.36291 -0.164791
2009-12-09 12:48:45 51°41.5 2°41.053 20.7271 3.394264 26.364054 -0.164791
2009-12-09 12:49:46 51°41.348 2°40.824 20.7451 3.393747 26.364508 -0.164791
2009-12-09 12:50:45 51°41.201 2°40.606 20.7564 3.393229 26.363871 -0.164791
2009-12-09 12:51:46 51°41.049 2°40.378 20.7693 3.392918 26.364471 -0.164791
2009-12-09 12:52:45 51°40.9 2°40.159 20.7851 3.3924 26.363835 -0.164791
2009-12-09 12:53:46 51°40.746 2°39.934 20.7953 3.391883 26.362653 -0.164791
2009-12-09 12:54:46 51°40.596 2°39.709 20.809 3.391675 26.36469 -0.164791
2009-12-09 12:55:46 51°40.444 2°39.485 20.8141 3.391261 26.364399 -0.164791
2009-12-09 12:56:46 51°40.291 2°39.263 20.8293 3.390847 26.364654 -0.164791
2009-12-09 12:57:46 51°40.14 2°39.037 20.8436 3.390433 26.365456 -0.164791
2009-12-09 12:58:46 51°39.988 2°38.813 20.8565 3.390018 26.366258 -0.164791
2009-12-09 12:59:45 51°39.839 2°38.592 20.8656 3.389501 26.365622 -0.164791
2009-12-09 13:00:46 51°39.684 2°38.364 20.8745 3.38919 26.366224 -0.164791
2009-12-09 13:01:45 51°39.535 2°38.142 20.8907 3.388776 26.367027 -0.164791
2009-12-09 13:02:46 51°39.38 2°37.914 20.8985 3.388465 26.368723 -0.164791
2009-12-09 13:03:45 51°39.23 2°37.693 20.9138 3.387844 26.366649 -0.164791
2009-12-09 13:04:46 51°39.075 2°37.468 20.9218 3.387429 26.366359 -0.164791
2009-12-09 13:05:46 51°38.922 2°37.243 20.9372 3.386912 26.366271 -0.164791
2009-12-09 13:06:46 51°38.77 2°37.017 20.9471 3.386601 26.367421 -0.164791
2009-12-09 13:07:46 51°38.617 2°36.793 20.9547 3.386187 26.368773 -0.164791
2009-12-09 13:08:45 51°38.466 2°36.57 20.9666 3.385669 26.367591 -0.164791
2009-12-09 13:09:46 51°38.31 2°36.341 20.9816 3.385151 26.367504 -0.164791
2009-12-09 13:10:45 51°38.158 2°36.12 20.9901 3.38484 26.367561 -0.164791
2009-12-09 13:11:46 51°38.002 2°35.892 21.0005 3.384323 26.367474 -0.164791
2009-12-09 13:12:45 51°37.851 2°35.669 21.0094 3.384012 26.368626 -0.164791
2009-12-09 13:13:46 51°37.695 2°35.438 21.0159 3.383701 26.369779 -0.164791
2009-12-09 13:14:45 51°37.544 2°35.215 21.0277 3.383183 26.368598 -0.164791
2009-12-09 13:15:46 51°37.388 2°34.981 21.0386 3.382562 26.366522 -0.164791
2009-12-09 13:16:46 51°37.236 2°34.751 21.0484 3.382251 26.368223 -0.164791
2009-12-09 13:17:46 51°37.084 2°34.519 21.0589 3.38163 26.3656 -0.164791
2009-12-09 13:18:46 51°36.933 2°34.285 21.0664 3.381319 26.365658 -0.164791
2009-12-09 13:19:46 51°36.784 2°34.043 21.0794 3.380594 26.363236 -0.164791
2009-12-09 13:20:45 51°36.635 2°33.811 21.0898 3.38018 26.363496 -0.164791
2009-12-09 13:21:45 51°36.491 2°33.567 21.1012 3.379766 26.363208 -0.164791
2009-12-09 13:22:46 51°36.348 2°33.319 21.1101 3.379455 26.363814 -0.164791
2009-12-09 13:23:45 51°36.209 2°33.08 21.1188 3.378834 26.362834 -0.164791
2009-12-09 13:24:46 51°36.063 2°32.833 21.1286 3.37842 26.363095 -0.164791
2009-12-09 13:25:45 51°35.921 2°32.595 21.1395 3.378005 26.364453 -0.164791
2009-12-09 13:26:46 51°35.775 2°32.35 21.1478 3.377591 26.364165 -0.164791
2009-12-09 13:27:46 51°35.63 2°32.107 21.1569 3.377073 26.363532 -0.164791
2009-12-09 13:28:46 51°35.485 2°31.864 21.1628 3.376866 26.365583 -0.164791
2009-12-09 13:29:46 51°35.338 2°31.621 21.172 3.376348 26.36495 -0.164791
2009-12-09 13:30:45 51°35.195 2°31.382 21.1839 3.375934 26.365212 -0.164791
2009-12-09 13:31:45 51°35.048 2°31.14 21.1938 3.37552 26.364926 -0.164791
2009-12-09 13:32:45 51°34.892 2°30.911 21.2015 3.375209 26.366084 -0.164791
2009-12-09 13:33:46 51°34.732 2°30.678 21.2111 3.375002 26.367588 -0.164791
2009-12-09 13:34:45 51°34.576 2°30.454 21.221 3.374381 26.36606 -0.164791
2009-12-09 13:35:46 51°34.414 2°30.222 21.2303 3.374174 26.367016 -0.164791
2009-12-09 13:36:46 51°34.257 2°29.993 21.2385 3.373863 26.367076 -0.164791
2009-12-09 13:37:46 51°34.099 2°29.767 21.2467 3.373449 26.36679 -0.164791
2009-12-09 13:38:46 51°33.94 2°29.543 21.2559 3.373138 26.366301 -0.164791
2009-12-09 13:39:46 51°33.784 2°29.312 21.2643 3.372827 26.366361 -0.164791
2009-12-09 13:40:46 51°33.629 2°29.083 21.2746 3.372413 26.365526 -0.164791
2009-12-09 13:41:45 51°33.477 2°28.855 21.2819 3.372103 26.364486 -0.164791
2009-12-09 13:42:45 51°33.321 2°28.626 21.2902 3.371999 26.366339 -0.164791
2009-12-09 13:43:46 51°33.159 2°28.4 21.2992 3.371481 26.364607 -0.164791
2009-12-09 13:44:46 51°32.994 2°28.189 21.31 3.371171 26.364118 -0.164791
2009-12-09 13:45:46 51°32.826 2°27.98 21.3166 3.370963 26.363975 -0.164791
2009-12-09 13:46:46 51°32.66 2°27.77 21.3257 3.370756 26.364933 -0.164791
2009-12-09 13:47:46 51°32.495 2°27.56 21.3338 3.370342 26.361896 -0.129967
2009-12-09 13:48:46 51°32.332 2°27.346 21.343 3.370135 26.362304 -0.164791
2009-12-09 13:49:46 51°32.169 2°27.134 21.3512 3.369928 26.362161 -0.164791
2009-12-09 13:50:45 51°32.009 2°26.927 21.3586 3.369514 26.359674 -0.164791
2009-12-09 13:51:45 51°31.846 2°26.715 21.3667 3.369306 26.358981 -0.164791
2009-12-09 13:52:45 51°31.681 2°26.504 21.3755 3.369203 26.359735 -0.164791
2009-12-09 13:53:45 51°31.515 2°26.297 21.3838 3.368892 26.358695 -0.164791
2009-12-09 13:54:46 51°31.349 2°26.08 21.3925 3.368685 26.358552 -0.129967
2009-12-09 13:55:46 51°31.185 2°25.863 21.3991 3.368374 26.357512 -0.164791
2009-12-09 13:56:46 51°31.021 2°25.648 21.4081 3.368167 26.357369 -0.164791
2009-12-09 13:57:46 51°30.855 2°25.438 21.4158 3.368064 26.358123 -0.129967
2009-12-09 13:58:46 51°30.691 2°25.223 21.4238 3.367753 26.356533 -0.164791
2009-12-09 13:59:46 51°30.526 2°25.01 21.432 3.367546 26.35639 -0.164791
2009-12-09 14:00:46 51°30.361 2°24.797 21.4412 3.367339 26.355697 -0.164791
2009-12-09 14:01:45 51°30.197 2°24.592 21.4496 3.367132 26.354453 -0.164791
2009-12-09 14:02:45 51°30.032 2°24.381 21.4577 3.367028 26.355207 -0.164791
2009-12-09 14:03:45 51°29.866 2°24.172 21.4641 3.366924 26.35486 -0.164791
2009-12-09 14:04:45 51°29.701 2°23.96 21.4719 3.366614 26.35382 -0.164791
2009-12-09 14:05:46 51°29.534 2°23.745 21.4807 3.366614 26.354921 -0.164791
2009-12-09 14:06:45 51°29.372 2°23.539 21.4906 3.366303 26.353881 -0.164791
2009-12-09 14:07:46 51°29.204 2°23.327 21.4974 3.3662 26.353534 -0.164791
2009-12-09 14:08:45 51°29.043 2°23.122 21.5045 3.366096 26.353738 -0.164791
2009-12-09 14:09:46 51°28.877 2°22.909 21.5128 3.365889 26.353044 -0.164791
2009-12-09 14:10:46 51°28.714 2°22.701 21.5255 3.365785 26.353799 -0.164791
2009-12-09 14:11:45 51°28.553 2°22.497 21.5293 3.365682 26.353452 -0.164791
2009-12-09 14:12:46 51°28.386 2°22.291 21.5367 3.365371 26.352411 -0.164791
2009-12-09 14:13:45 51°28.224 2°22.094 21.5419 3.365371 26.353513 -0.129967
2009-12-09 14:14:46 51°28.057 2°21.89 21.5522 3.365164 26.352819 -0.164791
2009-12-09 14:15:45 51°27.896 2°21.689 21.558 3.36506 26.353023 -0.129967
2009-12-09 14:16:46 51°27.729 2°21.482 21.5677 3.364853 26.351779 -0.164791
2009-12-09 14:17:45 51°27.565 2°21.285 21.5733 3.36475 26.351982 -0.164791
2009-12-09 14:18:46 51°27.425 2°21.108 21.5842 3.364957 26.354329 -0.164791
2009-12-09 14:19:45 51°27.403 2°21 21.5831 3.36475 26.352533 -0.129967
2009-12-09 14:20:46 51°27.392 2°20.98 21.5882 3.364336 26.351146 -0.129967
2009-12-09 14:21:46 51°27.381 2°20.972 21.5941 3.364128 26.351554 -0.164791
2009-12-09 14:22:45 51°27.374 2°20.964 21.5994 3.364128 26.352656 -0.164791
2009-12-09 14:23:46 51°27.366 2°20.956 21.6071 3.364232 26.353553 -0.164791
2009-12-09 14:24:45 51°27.357 2°20.947 21.6112 3.364025 26.352309 -0.129967
2009-12-09 14:25:46 51°27.347 2°20.938 21.6154 3.363921 26.352513 -0.164791
2009-12-09 14:26:45 51°27.336 2°20.932 21.6207 3.363921 26.353064 -0.164791
2009-12-09 14:27:46 51°27.334 2°20.913 21.6261 3.363507 26.349472 -0.164791
2009-12-09 14:28:45 51°27.366 2°20.916 21.6356 3.363507 26.350023 -0.164791
2009-12-09 14:29:50 51°27.386 2°21.031 21.6432 3.3633 26.350431 -0.164791
2009-12-09 14:30:49 51°27.374 2°21.146 21.6436 3.363507 26.353329 -0.164791
2009-12-09 14:31:49 51°27.356 2°21.221 21.6492 3.363404 26.354085 -0.129967
2009-12-09 14:32:49 51°27.341 2°21.288 21.6595 3.363507 26.354983 -0.164791
2009-12-09 14:33:50 51°27.318 2°21.35 21.6674 3.363196 26.352289 -0.164791
2009-12-09 14:34:49 51°27.288 2°21.425 21.6718 3.363093 26.352493 -0.129967
2009-12-09 14:35:49 51°27.254 2°21.507 21.6765 3.363196 26.353942 -0.129967
2009-12-09 14:36:49 51°27.22 2°21.591 21.6847 3.362989 26.353248 -0.129967
2009-12-09 14:37:49 51°27.186 2°21.675 21.6913 3.362886 26.352901 -0.129967
2009-12-09 14:38:49 51°27.154 2°21.76 21.7018 3.362886 26.353453 -0.129967
2009-12-09 14:39:49 51°27.12 2°21.843 21.7035 3.362886 26.354004 -0.129967
2009-12-09 14:40:49 51°27.087 2°21.926 21.7099 3.362679 26.35331 -0.129967
2009-12-09 14:41:49 51°27.054 2°22.009 21.7203 3.362679 26.353861 -0.129967
2009-12-09 14:42:50 51°27.022 2°22.095 21.7322 3.362472 26.352616 -0.164791
2009-12-09 14:43:49 51°26.991 2°22.178 21.7394 3.362368 26.35282 -0.129967
2009-12-09 14:44:49 51°26.961 2°22.262 21.7354 3.362472 26.35427 -0.129967
2009-12-09 14:45:49 51°26.931 2°22.347 21.7431 3.362264 26.353025 -0.164791
2009-12-09 14:46:49 51°26.888 2°22.421 21.7501 3.362368 26.354475 -0.129967
2009-12-09 14:47:49 51°26.833 2°22.477 21.7548 3.362264 26.354679 -0.129967
2009-12-09 14:48:49 51°26.773 2°22.523 21.7579 3.362057 26.353985 -0.129967
2009-12-09 14:49:49 51°26.708 2°22.55 21.768 3.361954 26.353638 -0.129967
2009-12-09 14:50:49 51°26.64 2°22.547 21.769 3.362057 26.35564 -0.129967
2009-12-09 14:51:49 51°26.572 2°22.516 21.7743 3.361747 26.354047 -0.129967
2009-12-09 14:52:49 51°26.514 2°22.454 21.7759 3.36185 26.355497 -0.129967
2009-12-09 14:53:49 51°26.472 2°22.364 21.7797 3.36154 26.353353 -0.129967
2009-12-09 14:54:49 51°26.44 2°22.265 21.7853 3.361436 26.353558 -0.164791
2009-12-09 14:55:49 51°26.409 2°22.166 21.7887 3.36154 26.355008 -0.129967
2009-12-09 14:56:50 51°26.379 2°22.065 21.7946 3.361332 26.354314 -0.129967
2009-12-09 14:57:49 51°26.342 2°21.976 21.7964 3.361332 26.354866 -0.164791
2009-12-09 14:58:49 51°26.298 2°21.894 21.8019 3.361332 26.354866 -0.164791
2009-12-09 14:59:49 51°26.248 2°21.824 21.8069 3.361332 26.355969 -0.129967
2009-12-09 15:00:49 51°26.203 2°21.755 21.8127 3.361332 26.355969 -0.129967
2009-12-09 15:01:49 51°26.161 2°21.685 21.8144 3.361229 26.355622 -0.164791
2009-12-09 15:02:49 51°26.118 2°21.616 21.8214 3.361022 26.354928 -0.129967
2009-12-09 15:03:49 51°26.075 2°21.55 21.8257 3.361125 26.355827 -0.164791
2009-12-09 15:04:49 51°26.031 2°21.483 21.8294 3.361125 26.35693 -0.164791
2009-12-09 15:05:49 51°25.989 2°21.415 21.8367 3.361125 26.35693 -0.129967
2009-12-09 15:06:49 51°25.947 2°21.349 21.8401 3.361022 26.357135 -0.164791
2009-12-09 15:07:49 51°25.907 2°21.28 21.8524 3.361022 26.357687 -0.129967
2009-12-09 15:08:49 51°25.896 2°21.195 21.8473 3.360918 26.35734 -0.129967
2009-12-09 15:09:49 51°25.904 2°21.105 21.8543 3.360711 26.357198 -0.129967
2009-12-09 15:10:49 51°25.929 2°21.025 21.8556 3.360711 26.357198 -0.129967
2009-12-09 15:11:49 51°25.975 2°20.99 21.86 3.360711 26.35775 -0.129967
2009-12-09 15:12:49 51°26.018 2°21.015 21.8677 3.360711 26.358853 -0.164791
2009-12-09 15:13:49 51°26.034 2°21.057 21.8702 3.360815 26.360304 -0.129967
2009-12-09 15:14:49 51°26.039 2°21.084 21.8872 3.360711 26.360509 -0.164791
2009-12-09 15:15:49 51°26.041 2°21.105 21.8842 3.360711 26.360509 -0.129967
2009-12-09 15:16:49 51°26.03 2°21.17 21.8883 3.3604 26.357813 -0.129967
2009-12-09 15:17:49 51°25.991 2°21.371 21.902 3.360401 26.358917 -0.164791
2009-12-09 15:18:49 51°25.942 2°21.648 21.9215 3.360401 26.358917 -0.129967
2009-12-09 15:19:49 51°25.892 2°21.938 21.9305 3.360401 26.360021 -0.129967
2009-12-09 15:20:49 51°25.88 2°22.242 21.9189 3.360608 26.361819 -0.164791
2009-12-09 15:21:49 51°25.874 2°22.548 21.9262 3.360401 26.359469 -0.129967
2009-12-09 15:22:49 51°25.871 2°22.85 21.9473 3.360504 26.359816 -0.164791
2009-12-09 15:23:49 51°25.851 2°23.147 21.9418 3.3604 26.358365 -0.129967
2009-12-09 15:24:49 51°25.802 2°23.437 21.9401 3.3604 26.358365 -0.129967
2009-12-09 15:25:49 51°25.726 2°23.712 21.5295 3.3604 26.357813 -0.129967
2009-12-09 15:26:49 51°25.633 2°23.976 21.62 3.360504 26.358712 -0.129967
2009-12-09 15:27:49 51°25.538 2°24.24 21.5836 3.360608 26.359611 -0.129967
2009-12-09 15:28:49 51°25.45 2°24.506 21.6158 3.360504 26.35816 -0.129967
2009-12-09 15:29:49 51°25.36 2°24.775 21.683 3.360608 26.359059 -0.164791
2009-12-09 15:30:49 51°25.274 2°25.048 21.7022 3.360711 26.359957 -0.129967
2009-12-09 15:31:49 51°25.165 2°25.299 21.6199 3.360711 26.359405 -0.164791
2009-12-09 15:32:49 51°25.049 2°25.542 21.6833 3.360711 26.359405 -0.129967
2009-12-09 15:33:49 51°24.932 2°25.785 21.644 3.360711 26.358853 -0.164791
2009-12-09 15:34:49 51°24.814 2°26.027 21.6392 3.360918 26.360099 -0.164791
2009-12-09 15:35:49 51°24.695 2°26.268 21.6223 3.361022 26.360998 -0.164791
2009-12-09 15:36:49 51°24.578 2°26.513 21.6569 3.360918 26.360099 -0.129967
2009-12-09 15:37:49 51°24.461 2°26.758 21.675 3.361022 26.360446 -0.129967
2009-12-09 15:38:49 51°24.347 2°27.007 21.6493 3.361125 26.360793 -0.164791
2009-12-09 15:39:49 51°24.235 2°27.261 21.666 3.361229 26.36114 -0.164791
2009-12-09 15:40:49 51°24.12 2°27.521 21.6673 3.361229 26.36114 -0.164791
2009-12-09 15:41:49 51°24.007 2°27.782 21.6562 3.361229 26.360588 -0.129967
2009-12-09 15:42:49 51°23.895 2°28.035 21.6548 3.361333 26.360935 -0.129967
2009-12-09 15:43:49 51°23.781 2°28.284 21.6392 3.361333 26.360383 -0.129967
2009-12-09 15:44:49 51°23.667 2°28.533 21.6604 3.361436 26.361282 -0.164791
2009-12-09 15:45:49 51°23.554 2°28.784 21.635 3.36154 26.361629 -0.164791
2009-12-09 15:46:49 51°23.441 2°29.036 21.6832 3.361643 26.362528 -0.164791
2009-12-09 15:47:49 51°23.328 2°29.288 21.6476 3.36185 26.363773 -0.129967
2009-12-09 15:48:49 51°23.215 2°29.539 21.6426 3.361954 26.364672 -0.164791
2009-12-09 15:49:49 51°23.103 2°29.79 21.6543 3.36185 26.363773 -0.129967
2009-12-09 15:50:49 51°22.991 2°30.044 21.6305 3.362161 26.36647 -0.164791
2009-12-09 15:51:49 51°22.884 2°30.3 21.6281 3.362265 26.367369 -0.164791
2009-12-09 15:52:49 51°22.774 2°30.553 21.6299 3.362161 26.365918 -0.164791
2009-12-09 15:53:49 51°22.667 2°30.809 21.6263 3.362265 26.366817 -0.164791
2009-12-09 15:54:49 51°22.559 2°31.066 21.6067 3.362368 26.367715 -0.164791
2009-12-09 15:55:49 51°22.449 2°31.323 21.6201 3.362575 26.370065 -0.164791
2009-12-09 15:56:49 51°22.338 2°31.578 21.6118 3.362575 26.369513 -0.164791
2009-12-09 15:57:49 51°22.232 2°31.837 21.6209 3.362679 26.370964 -0.129967
2009-12-09 15:58:49 51°22.122 2°32.095 21.6056 3.362679 26.370412 -0.164791
2009-12-09 15:59:49 51°22.012 2°32.353 21.5982 3.362886 26.37221 -0.164791
2009-12-09 16:00:49 51°21.902 2°32.61 21.6162 3.362886 26.372762 -0.164791
2009-12-09 16:01:49 51°21.789 2°32.867 21.6181 3.36299 26.373108 -0.164791
2009-12-09 16:02:49 51°21.675 2°33.123 21.5932 3.363093 26.374007 -0.164791
2009-12-09 16:03:49 51°21.56 2°33.379 21.5989 3.363093 26.374007 -0.164791
2009-12-09 16:04:49 51°21.446 2°33.635 21.5809 3.363197 26.375458 -0.164791
2009-12-09 16:05:49 51°21.336 2°33.893 21.6037 3.363093 26.374559 -0.164791
2009-12-09 16:06:49 51°21.226 2°34.154 21.5846 3.3633 26.376357 -0.164791
2009-12-09 16:07:49 51°21.118 2°34.417 21.5882 3.3633 26.376357 -0.164791
2009-12-09 16:08:49 51°21.007 2°34.679 21.5737 3.363404 26.377256 -0.164791
2009-12-09 16:09:49 51°20.898 2°34.94 21.5782 3.363508 26.378707 -0.164791
2009-12-09 16:10:49 51°20.789 2°35.197 21.5807 3.363611 26.379606 -0.164791
2009-12-09 16:11:49 51°20.68 2°35.455 21.5623 3.363611 26.379606 -0.164791
2009-12-09 16:12:49 51°20.572 2°35.716 21.5672 3.363611 26.380158 -0.164791
2009-12-09 16:13:49 51°20.463 2°35.981 21.5639 3.363508 26.378707 -0.164791
2009-12-09 16:14:49 51°20.355 2°36.249 21.5618 3.363715 26.381609 -0.164791
2009-12-09 16:15:49 51°20.246 2°36.515 21.5626 3.363611 26.380158 -0.129967
2009-12-09 16:16:49 51°20.14 2°36.785 21.5421 3.363508 26.379259 -0.164791
2009-12-09 16:17:49 51°20.04 2°37.062 21.5422 3.363611 26.379606 -0.164791
2009-12-09 16:18:49 51°19.944 2°37.343 21.5477 3.363715 26.380505 -0.164791
2009-12-09 16:19:49 51°19.847 2°37.623 21.5452 3.363715 26.380505 -0.164791
2009-12-09 16:20:49 51°19.749 2°37.901 21.5434 3.363715 26.379953 -0.164791
2009-12-09 16:21:49 51°19.651 2°38.18 21.5405 3.363611 26.379054 -0.129967
2009-12-09 16:22:49 51°19.553 2°38.457 21.5285 3.363818 26.380299 -0.129967
2009-12-09 16:23:49 51°19.455 2°38.735 21.5315 3.363818 26.380299 -0.164791
2009-12-09 16:24:49 51°19.361 2°39.012 21.5251 3.363818 26.380299 -0.129967
2009-12-09 16:25:49 51°19.264 2°39.286 21.5218 3.363922 26.380646 -0.129967
2009-12-09 16:26:49 51°19.167 2°39.561 21.5199 3.363922 26.380093 -0.164791
2009-12-09 16:27:49 51°19.071 2°39.837 21.5159 3.363922 26.379541 -0.164791
2009-12-09 16:28:49 51°18.971 2°40.11 21.5186 3.364129 26.381339 -0.164791
2009-12-09 16:29:49 51°18.863 2°40.374 21.5093 3.364025 26.379888 -0.129967
2009-12-09 16:30:49 51°18.756 2°40.644 21.504 3.364129 26.379682 -0.129967
2009-12-09 16:31:49 51°18.646 2°40.917 21.4981 3.364336 26.380927 -0.129967
2009-12-09 16:32:49 51°18.539 2°41.19 21.4978 3.364336 26.38148 -0.129967
2009-12-09 16:33:49 51°18.432 2°41.459 21.4996 3.364336 26.380927 -0.129967
2009-12-09 16:34:49 51°18.329 2°41.731 21.4919 3.364543 26.382173 -0.129967
2009-12-09 16:35:49 51°18.225 2°42.001 21.4872 3.36475 26.384523 -0.129967
2009-12-09 16:36:49 51°18.102 2°42.241 21.4834 3.36475 26.384523 -0.129967
2009-12-09 16:37:49 51°17.973 2°42.473 21.478 3.364854 26.384869 -0.164791
2009-12-09 16:38:49 51°17.841 2°42.702 21.4767 3.364854 26.384869 -0.129967
2009-12-09 16:39:49 51°17.709 2°42.931 21.476 3.364957 26.385768 -0.164791
2009-12-09 16:40:49 51°17.578 2°43.167 21.472 3.364957 26.385768 -0.164791
2009-12-09 16:41:49 51°17.446 2°43.411 21.4712 3.365061 26.386114 -0.164791
2009-12-09 16:42:49 51°17.321 2°43.664 21.4662 3.365268 26.387912 -0.129967
2009-12-09 16:43:49 51°17.205 2°43.926 21.4619 3.365372 26.38881 -0.164791
2009-12-09 16:44:49 51°17.098 2°44.197 21.4601 3.365372 26.38881 -0.129967
2009-12-09 16:45:49 51°16.992 2°44.467 21.4566 3.365372 26.38881 -0.129967
2009-12-09 16:46:49 51°16.892 2°44.742 21.4529 3.365475 26.389709 -0.164791
2009-12-09 16:47:49 51°16.793 2°45.017 21.4485 3.365475 26.389709 -0.129967
2009-12-09 16:48:49 51°16.69 2°45.288 21.4519 3.365475 26.389709 -0.129967
2009-12-09 16:49:49 51°16.587 2°45.555 21.4442 3.365682 26.392059 -0.129967
2009-12-09 16:50:49 51°16.48 2°45.82 21.4373 3.365579 26.39116 -0.129967
2009-12-09 16:51:49 51°16.374 2°46.084 21.4377 3.365786 26.392958 -0.129967
2009-12-09 16:52:49 51°16.264 2°46.345 21.4381 3.365786 26.39351 -0.129967
2009-12-09 16:53:49 51°16.158 2°46.615 21.4362 3.36589 26.394962 -0.129967
2009-12-09 16:54:49 51°16.055 2°46.889 21.4288 3.36589 26.394962 -0.129967
2009-12-09 16:55:49 51°15.962 2°47.176 21.4271 3.36589 26.395514 -0.129967
2009-12-09 16:56:49 51°15.873 2°47.471 21.4211 3.365993 26.396966 -0.129967
2009-12-09 16:57:49 51°15.783 2°47.767 21.4236 3.365993 26.396966 -0.129967
2009-12-09 16:58:49 51°15.691 2°48.059 21.4221 3.365993 26.396966 -0.164791
2009-12-09 16:59:49 51°15.609 2°48.356 21.4094 3.366097 26.398417 -0.129967
2009-12-09 17:00:49 51°15.529 2°48.654 21.4134 3.365993 26.398071 -0.129967
2009-12-09 17:01:49 51°15.453 2°48.952 21.4046 3.365993 26.398071 -0.164791
2009-12-09 17:02:49 51°15.384 2°49.258 21.4066 3.366097 26.399522 -0.129967
2009-12-09 17:03:49 51°15.319 2°49.569 21.3967 3.366097 26.400075 -0.129967
2009-12-09 17:04:49 51°15.255 2°49.88 21.4064 3.366097 26.400075 -0.129967
2009-12-09 17:05:49 51°15.191 2°50.189 21.4024 3.365993 26.399729 -0.129967
2009-12-09 17:06:49 51°15.126 2°50.497 21.387 3.365993 26.400282 -0.129967
2009-12-09 17:07:49 51°15.059 2°50.804 21.3906 3.365993 26.400834 -0.129967
2009-12-09 17:08:49 51°14.989 2°51.107 21.3927 3.366097 26.401733 -0.129967
2009-12-09 17:09:49 51°14.917 2°51.408 21.4009 3.366097 26.402839 -0.129967
2009-12-09 17:10:49 51°14.854 2°51.713 21.3808 3.366097 26.402839 -0.129967
2009-12-09 17:11:49 51°14.796 2°52.021 21.3931 3.365993 26.402493 -0.129967
2009-12-09 17:12:49 51°14.746 2°52.32 21.4005 3.366304 26.405743 -0.129967
2009-12-09 17:13:49 51°14.733 2°52.524 21.3906 3.3662 26.405397 -0.129967
2009-12-09 17:14:49 51°14.728 2°52.722 21.3816 3.366097 26.40505 -0.129967
2009-12-09 17:15:49 51°14.724 2°52.91 21.3865 3.3662 26.406502 -0.129967
2009-12-09 17:16:49 51°14.72 2°53.067 21.3865 3.3662 26.407055 -0.129967
2009-12-09 17:17:49 51°14.701 2°53.202 21.3787 3.366097 26.406709 -0.129967
2009-12-09 17:18:49 51°14.676 2°53.345 21.3797 3.366097 26.407262 -0.129967
2009-12-09 17:19:49 51°14.644 2°53.493 21.3831 3.365993 26.406916 -0.129967
2009-12-09 17:20:49 51°14.595 2°53.688 21.3668 3.36589 26.40657 -0.129967
2009-12-09 17:21:49 51°14.536 2°53.95 21.3694 3.36589 26.40657 -0.129967
2009-12-09 17:22:49 51°14.478 2°54.254 21.3723 3.36589 26.407123 -0.129967
2009-12-09 17:23:49 51°14.441 2°54.578 21.3466 3.36589 26.407676 -0.129967
2009-12-09 17:24:49 51°14.405 2°54.903 21.3628 3.36589 26.408782 -0.129967
2009-12-09 17:25:49 51°14.309 2°55.162 21.3716 3.36589 26.409335 -0.129967
2009-12-09 17:26:49 51°14.206 2°55.343 21.3562 3.365993 26.410788 -0.129967
2009-12-09 17:27:49 51°14.128 2°55.417 21.376 3.365993 26.411341 -0.129967
2009-12-09 17:28:49 51°14.067 2°55.462 21.3733 3.36589 26.410995 -0.129967
2009-12-09 17:29:49 51°14.008 2°55.505 21.37 3.365786 26.410649 -0.129967
2009-12-09 17:30:49 51°13.913 2°55.571 21.3417 3.365579 26.409403 -0.129967
2009-12-09 17:31:49 51°13.792 2°55.664 21.3676 3.365786 26.411202 -0.129967
2009-12-09 17:32:49 51°13.727 2°55.766 21.3512 3.365786 26.411202 -0.129967
2009-12-09 17:33:53 51°13.686 2°55.869 21.3549 3.365786 26.411755 -0.129967
2009-12-09 17:34:53 51°13.665 2°55.945 21.3389 3.365786 26.411755 -0.129967